Time;durP1;ratioP1;P1;durP2;ratioP2;P2;SDS_P1;SDS_P2;PMS_P1;PMS_P2;Temp;Humidity;BMP_temperature;BMP_pressure;BME280_temperature;BME280_humidity;BME280_pressure;Samples;Min_cycle;Max_cycle;Signal;HPM_P1;HPM_P2
2022/02/10 00:15:42;;;;;;;;;23.00;22.75;;;;;8.91;56.28;102228.28;146593;650;46020;-85
2022/02/10 00:19:00;;;;;;;;;64.25;50.75;;;;;8.89;54.97;102241.13;146596;652;47008;-86
2022/02/10 00:21:55;;;;;;;;;18.75;18.75;;;;;8.81;55.89;102220.56;146600;565;47008;-77
2022/02/10 00:34:31;;;;;;;;;56.50;43.75;;;;;8.55;57.50;102240.00;146596;573;46021;-79
2022/02/10 00:37:36;;;;;;;;;18.75;17.50;;;;;8.47;57.40;102246.22;146601;634;47010;-78
2022/02/10 00:40:39;;;;;;;;;10.75;10.50;;;;;8.28;57.27;102230.81;146594;577;47028;-77
2022/02/10 00:43:31;;;;;;;;;11.25;11.25;;;;;8.18;57.24;102238.56;146597;576;46017;-77
2022/02/10 00:46:23;;;;;;;;;14.50;13.00;;;;;8.14;58.15;102239.97;146592;590;46020;-78
2022/02/10 00:49:16;;;;;;;;;18.50;17.50;;;;;8.05;58.70;102244.38;146597;567;46029;-78
2022/02/10 00:52:08;;;;;;;;;16.75;15.50;;;;;7.97;59.34;102235.03;146599;601;47008;-77
2022/02/10 00:55:02;;;;;;;;;11.00;9.75;;;;;7.88;60.33;102240.31;146597;582;46916;-77
2022/02/10 00:57:54;;;;;;;;;11.00;9.00;;;;;7.78;61.25;102236.03;146600;610;46020;-78
2022/02/10 01:10:34;;;;;;;;;8.50;8.25;;;;;7.77;61.61;102216.16;146605;573;46028;-74
2022/02/10 01:29:42;;;;;;;;;22.75;22.25;;;;;8.34;58.85;102232.22;146604;606;46026;-72
2022/02/10 01:32:34;;;;;;;;;15.75;14.50;;;;;8.33;61.47;102226.94;146598;674;46016;-72
2022/02/10 01:35:28;;;;;;;;;70.00;53.25;;;;;8.29;61.94;102219.72;146596;579;46021;-72
2022/02/10 01:38:20;;;;;;;;;21.50;21.25;;;;;8.25;59.85;102227.97;146598;605;47010;-71
2022/02/10 02:03:28;;;;;;;;;9.00;8.25;;;;;7.68;63.87;102222.22;146589;658;46016;-72
2022/02/10 02:06:26;;;;;;;;;8.50;8.50;;;;;7.72;63.25;102230.34;146593;577;47008;-72
2022/02/10 02:09:21;;;;;;;;;11.00;10.50;;;;;7.75;63.01;102225.44;146595;569;46010;-73
2022/02/10 02:12:13;;;;;;;;;10.50;9.75;;;;;7.78;62.88;102220.53;146592;654;46012;-85
2022/02/10 02:15:05;;;;;;;;;6.00;5.00;;;;;7.81;62.46;102218.22;146591;606;46016;-79
2022/02/10 02:17:57;;;;;;;;;6.50;5.25;;;;;7.81;63.08;102218.22;146586;622;46020;-79
2022/02/10 02:20:52;;;;;;;;;8.25;7.75;;;;;7.80;63.35;102216.44;146590;582;46010;-78
2022/02/10 02:23:44;;;;;;;;;6.00;6.00;;;;;7.78;63.13;102219.66;146594;590;46008;-75
2022/02/10 02:26:36;;;;;;;;;6.75;6.75;;;;;7.78;62.36;102228.28;146590;575;46017;-76
2022/02/10 02:29:42;;;;;;;;;8.00;7.00;;;;;7.77;61.18;102226.50;146596;585;46008;-75
2022/02/10 02:32:38;;;;;;;;;10.50;10.00;;;;;7.85;60.28;102234.91;146590;638;46016;-74
2022/02/10 02:35:46;;;;;;;;;9.00;9.00;;;;;7.93;60.80;102235.56;146590;591;46021;-75
2022/02/10 02:39:11;;;;;;;;;11.00;9.25;;;;;7.99;60.04;102236.09;146593;590;47010;-80
2022/02/10 03:04:09;;;;;;;;;16.75;16.50;;;;;8.06;60.25;102238.41;146584;607;46016;-81
2022/02/10 03:07:46;;;;;;;;;13.25;11.25;;;;;7.86;60.30;102241.88;146598;570;46022;-75
2022/02/10 03:17:40;;;;;;;;;6.50;6.00;;;;;7.63;61.35;102251.13;146599;581;46010;-80
2022/02/10 04:08:46;;;;;;;;;16.75;14.50;;;;;7.44;60.16;102276.06;146596;569;46016;-72
2022/02/10 04:15:11;;;;;;;;;12.75;12.25;;;;;7.30;61.12;102277.44;146592;571;47010;-72
2022/02/10 04:18:19;;;;;;;;;13.50;12.75;;;;;7.23;62.25;102285.41;146604;639;46012;-73
2022/02/10 04:21:24;;;;;;;;;15.75;14.00;;;;;7.06;63.61;102283.87;146599;575;46010;-73
2022/02/10 04:24:48;;;;;;;;;19.25;18.25;;;;;6.91;62.89;102280.81;146592;570;46021;-73
2022/02/10 04:31:29;;;;;;;;;12.00;11.50;;;;;6.63;63.51;102294.53;146602;624;47008;-69
2022/02/10 04:44:58;;;;;;;;;9.75;9.25;;;;;6.59;61.96;102307.91;146599;602;46020;-68
2022/02/10 04:54:28;;;;;;;;;11.00;10.00;;;;;7.06;60.39;102313.94;146599;591;46017;-79
2022/02/10 05:07:46;;;;;;;;;12.75;11.00;;;;;7.54;58.76;102311.34;146601;582;46016;-72
2022/02/10 05:17:12;;;;;;;;;12.25;10.00;;;;;7.61;58.94;102314.63;146600;577;46020;-71
2022/02/10 05:20:44;;;;;;;;;12.75;11.00;;;;;7.63;59.71;102317.31;146598;669;47010;-72
2022/02/10 05:36:16;;;;;;;;;17.25;11.50;;;;;7.66;58.85;102320.16;146600;691;46020;-71
2022/02/10 05:39:20;;;;;;;;;15.25;11.25;;;;;7.68;58.99;102320.31;146605;602;46016;-72
2022/02/10 05:45:42;;;;;;;;;14.50;14.50;;;;;7.74;58.08;102332.09;146597;687;46016;-73
2022/02/10 05:48:56;;;;;;;;;15.25;13.75;;;;;7.74;58.54;102318.28;146597;582;46020;-73
2022/02/10 05:52:28;;;;;;;;;19.50;14.50;;;;;7.75;58.22;102336.47;146600;569;46012;-74
2022/02/10 06:02:02;;;;;;;;;23.25;20.50;;;;;7.71;57.83;102336.97;146591;570;47009;-74
2022/02/10 06:53:14;;;;;;;;;24.00;20.00;;;;;17.25;38.28;102378.31;146596;564;46020;-70
2022/02/10 07:09:28;;;;;;;;;20.25;18.25;;;;;16.40;39.83;102383.50;146591;594;46017;-77
2022/02/10 07:12:53;;;;;;;;;15.75;15.75;;;;;16.09;39.71;102380.03;146600;589;46008;-75
2022/02/10 07:46:03;;;;;;;;;31.25;27.25;;;;;15.16;43.23;102392.13;146597;704;47008;-71
2022/02/10 07:47:49;;;;;;;;;33.00;30.50;;;;;15.25;42.78;102399.63;146600;616;46017;-69
2022/02/10 07:54:01;;;;;;;;;33.75;28.25;;;;;15.13;42.54;102396.28;146593;651;46017;-77
2022/02/10 07:57:11;;;;;;;;;34.75;28.25;;;;;15.13;43.30;102391.94;146597;569;46020;-80
2022/02/10 09:04:21;;;;;;;;;12.75;10.75;;;;;17.63;39.37;102387.22;146587;596;46016;-82
2022/02/10 09:11:22;;;;;;;;;17.25;14.00;;;;;17.51;38.73;102379.63;146584;737;46016;-86
2022/02/10 10:02:38;;;;;;;;;8.75;8.50;;;;;18.76;39.36;102348.72;146592;585;47913;-80
2022/02/10 10:05:35;;;;;;;;;10.00;10.00;;;;;18.85;38.26;102343.88;146601;631;46021;-80
2022/02/10 10:12:11;;;;;;;;;10.75;10.75;;;;;19.06;38.15;102328.09;146598;580;46020;-80
2022/02/10 10:15:26;;;;;;;;;3.50;2.75;;;;;19.22;38.34;102332.25;146601;649;47010;-80
2022/02/10 10:22:00;;;;;;;;;9.50;7.50;;;;;19.38;36.44;102325.06;146598;709;47010;-80
2022/02/10 10:25:20;;;;;;;;;8.75;8.75;;;;;19.47;38.22;102318.37;146598;646;46020;-81
2022/02/10 10:45:47;;;;;;;;;10.25;8.50;;;;;18.69;36.43;102145.19;146594;617;47012;-69
2022/02/10 10:51:36;;;;;;;;;9.00;8.00;;;;;19.42;36.34;102278.75;146593;576;46012;-76
2022/02/10 10:54:36;;;;;;;;;10.00;8.50;;;;;19.35;35.91;102264.44;146597;646;46026;-74
2022/02/10 10:57:33;;;;;;;;;8.00;6.50;;;;;19.36;37.17;102273.22;146600;565;46008;-76
2022/02/10 11:37:06;;;;;;;;;12.00;9.00;;;;;17.61;39.13;102063.59;146596;647;47012;-74
2022/02/10 11:40:21;;;;;;;;;9.00;8.50;;;;;18.53;40.04;102203.19;146600;601;46030;-74
2022/02/10 11:43:38;;;;;;;;;10.75;10.75;;;;;18.46;39.95;102202.91;146600;639;46020;-73
2022/02/10 12:00:38;;;;;;;;;8.75;8.50;;;;;18.47;39.43;102198.56;146599;622;46016;-74
2022/02/10 12:39:18;;;;;;;;;12.00;11.25;;;;;18.03;38.60;102154.66;146599;585;46016;-75
2022/02/10 14:13:55;;;;;;;;;12.75;12.50;;;;;17.39;38.65;102139.53;146591;673;46020;-74
2022/02/10 14:16:55;;;;;;;;;8.75;7.75;;;;;17.28;37.55;102141.63;146584;606;47010;-74
2022/02/10 14:19:59;;;;;;;;;13.00;11.00;;;;;17.09;38.23;102146.00;146593;646;46008;-74
2022/02/10 14:23:04;;;;;;;;;18.00;17.00;;;;;16.78;38.29;102142.75;146583;579;47010;-73
2022/02/10 14:26:06;;;;;;;;;17.75;17.00;;;;;16.63;39.24;102128.09;146590;734;46021;-73
2022/02/10 14:28:58;;;;;;;;;19.00;16.25;;;;;16.49;39.07;102123.88;146586;653;46016;-74
2022/02/10 14:31:53;;;;;;;;;21.25;19.25;;;;;16.40;38.81;102126.94;146589;612;46021;-73
2022/02/10 14:34:48;;;;;;;;;20.00;18.25;;;;;16.41;39.89;102114.72;146586;565;46010;-73
2022/02/10 15:13:40;;;;;;;;;21.00;17.25;;;;;15.20;42.11;102127.59;146599;608;46016;-73
2022/02/10 15:51:43;;;;;;;;;21.75;20.25;;;;;14.99;44.22;102121.19;146598;583;46012;-73
2022/02/10 15:54:59;;;;;;;;;20.75;19.00;;;;;14.83;45.12;102119.44;146600;619;47008;-76
2022/02/10 16:17:08;;;;;;;;;44.00;31.50;;;;;13.42;47.81;102129.31;146595;576;47010;-70
2022/02/10 16:20:07;;;;;;;;;46.25;38.00;;;;;13.31;48.94;102138.19;146600;625;46020;-71
2022/02/10 16:23:16;;;;;;;;;37.25;33.00;;;;;13.16;49.41;102138.09;146600;566;47012;-73
2022/02/10 16:26:15;;;;;;;;;41.50;33.00;;;;;12.97;49.53;102135.13;146598;607;47008;-72
2022/02/10 16:29:10;;;;;;;;;48.25;39.25;;;;;12.76;49.58;102138.13;146599;582;46916;-73
2022/02/10 16:32:03;;;;;;;;;45.50;37.25;;;;;12.61;49.75;102135.41;146600;566;46020;-73
2022/02/10 16:34:56;;;;;;;;;44.75;33.50;;;;;12.48;50.26;102144.12;146598;618;46016;-72
2022/02/10 16:37:48;;;;;;;;;39.00;31.50;;;;;12.36;51.08;102148.50;146598;633;46021;-77
2022/02/10 16:40:42;;;;;;;;;32.75;27.00;;;;;12.21;50.67;102139.69;146597;569;46016;-74
2022/02/10 16:43:35;;;;;;;;;38.00;32.75;;;;;12.10;50.86;102144.19;146589;581;46020;-69
2022/02/10 16:46:27;;;;;;;;;26.50;25.25;;;;;12.04;51.12;102151.56;146599;626;46016;-72
2022/02/10 16:49:22;;;;;;;;;38.00;32.00;;;;;12.00;50.98;102160.84;146595;625;46008;-71
2022/02/10 16:52:22;;;;;;;;;33.00;28.75;;;;;11.99;51.05;102158.13;146600;596;47010;-71
2022/02/10 16:58:41;;;;;;;;;43.25;35.25;;;;;11.92;51.61;102155.91;146597;574;46012;-71
2022/02/10 17:02:03;;;;;;;;;58.50;46.25;;;;;11.79;51.45;102154.16;146606;642;46008;-70
2022/02/10 17:17:59;;;;;;;;;30.00;28.50;;;;;11.04;53.02;102169.63;146596;584;46016;-71
2022/02/10 17:33:39;;;;;;;;;28.00;26.00;;;;;10.67;53.95;102163.44;146595;602;47012;-68
2022/02/10 17:36:38;;;;;;;;;25.75;23.50;;;;;10.66;53.64;102164.25;146597;603;46016;-74
2022/02/10 17:46:03;;;;;;;;;19.00;17.25;;;;;10.61;53.62;102163.88;146590;628;47008;-77
2022/02/10 17:52:13;;;;;;;;;22.00;19.00;;;;;10.56;54.00;102153.19;146598;619;46021;-77
2022/02/10 17:55:09;;;;;;;;;23.75;19.75;;;;;10.56;53.67;102157.44;146598;570;46016;-78
2022/02/10 17:58:02;;;;;;;;;17.75;16.75;;;;;10.56;53.38;102152.25;146597;629;46012;-76
2022/02/10 18:00:58;;;;;;;;;18.00;17.00;;;;;10.63;53.29;102160.62;146595;569;46916;-77
2022/02/10 18:03:51;;;;;;;;;22.50;19.50;;;;;10.72;53.03;102155.22;146602;626;46008;-77
2022/02/10 18:06:46;;;;;;;;;22.25;17.00;;;;;10.79;52.54;102149.66;146591;571;47010;-78
2022/02/10 18:10:07;;;;;;;;;18.50;18.50;;;;;10.88;52.55;102159.81;146599;633;47008;-76
2022/02/10 18:16:17;;;;;;;;;28.00;25.50;;;;;10.95;52.15;102159.47;146592;618;46021;-77
2022/02/10 18:25:58;;;;;;;;;19.00;17.00;;;;;10.81;52.33;102170.53;146598;660;46016;-77
2022/02/10 18:29:00;;;;;;;;;19.25;18.75;;;;;10.79;52.58;102170.44;146599;578;46020;-76
2022/02/10 19:07:15;;;;;;;;;52.75;42.75;;;;;10.56;52.88;102183.38;146591;632;46021;-77
2022/02/10 19:10:11;;;;;;;;;42.25;36.25;;;;;10.53;53.41;102178.87;146586;593;47010;-77
2022/02/10 19:13:03;;;;;;;;;31.25;29.00;;;;;10.47;53.71;102182.72;146588;600;46008;-77
2022/02/10 19:15:57;;;;;;;;;38.75;30.75;;;;;10.39;54.20;102185.63;146587;581;46018;-77
2022/02/10 19:18:49;;;;;;;;;39.50;31.25;;;;;10.30;54.03;102178.84;146590;629;46008;-77
2022/02/10 19:21:41;;;;;;;;;26.75;26.00;;;;;10.22;53.82;102179.91;146585;588;46916;-77
2022/02/10 19:24:33;;;;;;;;;28.50;23.75;;;;;10.08;54.86;102177.19;146587;657;46020;-77
2022/02/10 19:27:26;;;;;;;;;27.00;23.75;;;;;9.96;54.68;102176.22;146587;605;47010;-75
2022/02/10 19:30:20;;;;;;;;;26.50;24.50;;;;;9.86;54.30;102173.72;146585;563;47008;-77
2022/02/10 19:33:15;;;;;;;;;32.25;26.50;;;;;9.81;54.25;102175.06;146587;569;46016;-78
2022/02/10 19:36:07;;;;;;;;;22.25;20.50;;;;;9.79;54.82;102179.22;146586;580;46021;-78
2022/02/10 19:38:59;;;;;;;;;21.75;21.75;;;;;9.75;54.79;102172.91;146586;579;47012;-77
2022/02/10 19:41:53;;;;;;;;;25.00;21.50;;;;;9.76;54.86;102172.13;146588;615;46008;-77
2022/02/10 19:44:45;;;;;;;;;37.75;30.00;;;;;9.78;54.62;102178.34;146587;590;46016;-77
2022/02/10 19:47:41;;;;;;;;;47.25;38.25;;;;;9.86;54.70;102171.12;146586;597;46020;-77
2022/02/10 19:50:34;;;;;;;;;45.75;36.00;;;;;9.91;54.09;102178.50;146594;608;47012;-78
2022/02/10 19:53:28;;;;;;;;;43.25;33.50;;;;;9.95;54.43;102179.63;146598;563;46020;-77
2022/02/10 19:56:20;;;;;;;;;45.25;37.00;;;;;10.00;54.02;102174.78;146597;564;46021;-77
2022/02/10 19:59:16;;;;;;;;;44.25;37.25;;;;;10.03;53.84;102183.72;146597;623;47008;-77
2022/02/10 20:02:08;;;;;;;;;55.25;44.75;;;;;10.03;54.08;102183.72;146597;598;46016;-77
2022/02/10 20:05:00;;;;;;;;;54.50;43.25;;;;;10.00;54.04;102192.91;146601;599;46009;-77
2022/02/10 20:07:53;;;;;;;;;47.75;39.00;;;;;9.93;53.91;102189.84;146600;594;47010;-77
2022/02/10 20:10:50;;;;;;;;;47.50;38.00;;;;;9.86;54.50;102185.00;146603;584;45020;-77
2022/02/10 20:13:43;;;;;;;;;42.75;36.50;;;;;9.76;54.57;102181.59;146594;582;45916;-76
2022/02/10 20:16:35;;;;;;;;;48.25;36.50;;;;;9.63;54.93;102178.03;146592;595;46020;-76
2022/02/10 20:19:27;;;;;;;;;46.50;37.00;;;;;9.52;55.00;102185.75;146601;635;47010;-76
2022/02/10 20:22:20;;;;;;;;;52.75;41.00;;;;;9.41;55.08;102187.50;146602;610;46008;-76
2022/02/10 20:25:13;;;;;;;;;41.50;34.75;;;;;9.35;55.18;102187.00;146596;646;46027;-76
2022/02/10 20:28:07;;;;;;;;;35.25;31.50;;;;;9.33;55.37;102181.69;146600;638;46021;-77
2022/02/10 20:31:00;;;;;;;;;37.25;32.25;;;;;9.33;55.82;102180.78;146601;578;46016;-77
2022/02/10 20:33:52;;;;;;;;;30.25;27.25;;;;;9.30;55.83;102178.87;146597;577;46021;-77
2022/02/10 20:36:45;;;;;;;;;36.75;30.50;;;;;9.25;55.65;102181.09;146597;645;47012;-76
2022/02/10 20:39:37;;;;;;;;;35.50;30.75;;;;;9.22;55.57;102182.50;146597;643;46020;-77
2022/02/10 20:42:32;;;;;;;;;32.75;28.25;;;;;9.17;55.44;102186.44;146595;586;46016;-77
2022/02/10 20:45:24;;;;;;;;;33.00;30.25;;;;;9.10;55.64;102178.97;146592;597;46020;-77
2022/02/10 20:48:16;;;;;;;;;48.75;39.50;;;;;9.01;55.91;102180.03;146598;574;47010;-77
2022/02/10 20:51:12;;;;;;;;;33.00;28.50;;;;;8.92;56.38;102193.91;146600;586;46914;-77
2022/02/10 20:54:04;;;;;;;;;24.25;24.25;;;;;8.91;56.07;102173.97;146603;575;46010;-77
2022/02/10 20:56:57;;;;;;;;;25.00;24.75;;;;;8.86;55.82;102177.88;146600;570;46008;-77
2022/02/10 20:59:49;;;;;;;;;17.00;17.00;;;;;8.76;57.29;102174.56;146598;639;46031;-77
2022/02/10 21:02:45;;;;;;;;;20.75;17.75;;;;;8.70;57.30;102163.72;146600;622;46020;-78
2022/02/10 21:05:40;;;;;;;;;25.25;25.25;;;;;8.69;57.34;102160.97;146598;603;46011;-76
2022/02/10 21:08:42;;;;;;;;;24.25;23.25;;;;;8.69;57.05;102166.16;146598;579;46020;-77
2022/02/10 21:11:34;;;;;;;;;14.25;13.50;;;;;8.68;57.32;102157.50;146600;617;46010;-77
2022/02/10 21:14:28;;;;;;;;;13.50;10.00;;;;;8.67;56.96;102159.97;146591;706;46020;-77
2022/02/10 21:17:25;;;;;;;;;11.75;10.50;;;;;8.67;56.74;102163.47;146599;629;46010;-78
2022/02/10 21:20:17;;;;;;;;;38.75;32.00;;;;;8.73;57.01;102163.97;146598;592;46020;-77
2022/02/10 21:23:27;;;;;;;;;50.00;41.25;;;;;8.83;56.77;102165.59;146598;578;46016;-78
2022/02/10 21:26:26;;;;;;;;;50.50;37.75;;;;;8.90;56.18;102152.37;146598;602;46021;-78
2022/02/10 21:29:21;;;;;;;;;28.50;26.50;;;;;8.97;55.97;102148.59;146595;565;46016;-78
2022/02/10 21:32:13;;;;;;;;;20.50;18.25;;;;;9.00;55.74;102144.59;146595;640;47008;-75
2022/02/10 21:35:21;;;;;;;;;22.75;20.50;;;;;9.00;55.52;102146.25;146603;586;46016;-76
2022/02/10 21:38:19;;;;;;;;;23.50;19.00;;;;;9.00;55.41;102146.25;146593;616;46020;-78
2022/02/10 21:42:18;;;;;;;;;46.75;39.25;;;;;9.04;55.12;102142.25;146594;592;46016;-78
2022/02/10 21:45:25;;;;;;;;;37.25;31.00;;;;;9.10;55.61;102135.00;146589;579;47010;-78
2022/02/10 21:48:14;;;;;;;;;18.75;17.25;;;;;9.09;56.14;102131.47;146601;569;46010;-78
2022/02/10 22:08:25;;;;;;;;;43.75;36.25;;;;;9.07;56.16;102135.63;146589;608;46016;-79
2022/02/10 22:17:38;;;;;;;;;29.00;26.50;;;;;8.83;55.77;102126.81;146588;564;46020;-79
2022/02/10 22:20:45;;;;;;;;;33.00;29.25;;;;;8.76;55.63;102115.06;146587;666;46016;-79
2022/02/10 22:23:42;;;;;;;;;26.50;24.25;;;;;8.62;55.83;102115.63;146592;602;46020;-79
2022/02/10 22:26:36;;;;;;;;;16.50;15.00;;;;;8.45;56.00;102118.53;146588;577;46017;-79
2022/02/10 22:29:45;;;;;;;;;35.50;32.00;;;;;8.34;56.35;102117.59;146590;622;47008;-79
2022/02/10 22:32:57;;;;;;;;;33.00;29.25;;;;;8.32;56.74;102119.19;146589;620;46916;-78
2022/02/10 22:35:50;;;;;;;;;16.00;16.00;;;;;8.34;56.82;102117.59;146590;639;46008;-79
2022/02/10 22:38:43;;;;;;;;;13.50;13.50;;;;;8.37;56.35;102119.53;146589;587;48916;-79
2022/02/10 22:41:36;;;;;;;;;14.50;10.25;;;;;8.36;55.99;102115.16;146590;564;46021;-79
2022/02/10 22:44:29;;;;;;;;;12.00;11.50;;;;;8.34;56.54;102117.59;146586;607;46010;-79
2022/02/10 22:47:22;;;;;;;;;23.25;20.75;;;;;8.29;56.26;102116.34;146587;590;46914;-79
2022/02/10 22:50:14;;;;;;;;;17.50;14.50;;;;;8.20;56.44;102110.41;146595;596;46915;-79
2022/02/10 22:53:06;;;;;;;;;50.00;39.25;;;;;8.13;56.55;102123.56;146603;577;46020;-78
2022/02/10 22:55:59;;;;;;;;;56.75;44.50;;;;;8.04;56.35;102111.72;146600;588;47010;-78
2022/02/10 22:58:52;;;;;;;;;37.50;33.25;;;;;7.93;57.71;102114.16;146598;584;46020;-78
2022/02/10 23:01:45;;;;;;;;;27.00;23.50;;;;;7.76;59.04;102113.66;146598;619;46013;-78
2022/02/10 23:04:37;;;;;;;;;20.25;19.25;;;;;7.66;58.88;102112.72;146603;571;46012;-78
2022/02/10 23:07:30;;;;;;;;;16.25;14.00;;;;;7.58;59.80;102101.78;146597;564;46016;-78
2022/02/10 23:13:34;;;;;;;;;13.00;8.00;;;;;7.56;59.19;102095.56;146599;681;46016;-78
2022/02/10 23:16:26;;;;;;;;;13.75;11.50;;;;;7.51;58.50;102087.44;146591;634;46021;-78
2022/02/10 23:19:21;;;;;;;;;10.75;8.50;;;;;7.57;58.99;102093.12;146600;594;46024;-79
2022/02/10 23:22:13;;;;;;;;;11.00;11.00;;;;;7.59;58.66;102088.97;146598;566;47012;-80
2022/02/10 23:25:05;;;;;;;;;12.50;10.25;;;;;7.63;58.36;102082.38;146604;597;46017;-78
2022/02/10 23:27:57;;;;;;;;;11.25;11.25;;;;;7.69;58.21;102089.75;146600;670;45020;-78
2022/02/10 23:30:50;;;;;;;;;19.50;16.25;;;;;7.70;58.55;102084.75;146604;651;45916;-77
2022/02/10 23:33:48;;;;;;;;;22.25;20.00;;;;;7.67;58.44;102076.75;146600;575;46021;-78
2022/02/10 23:36:52;;;;;;;;;12.00;10.00;;;;;7.63;58.59;102070.41;146596;595;47012;-78
2022/02/10 23:39:46;;;;;;;;;16.25;13.00;;;;;7.59;58.75;102067.44;146603;694;46008;-78
2022/02/10 23:42:38;;;;;;;;;13.25;12.25;;;;;7.57;58.13;102062.16;146596;589;46016;-79
2022/02/10 23:45:31;;;;;;;;;20.25;14.75;;;;;7.52;58.54;102068.59;146591;628;46020;-79
2022/02/10 23:48:25;;;;;;;;;12.75;12.00;;;;;7.49;58.28;102065.75;146598;764;46017;-79
2022/02/10 23:51:18;;;;;;;;;14.75;14.75;;;;;7.44;59.41;102066.12;146599;579;47008;-79
2022/02/10 23:54:11;;;;;;;;;17.00;15.50;;;;;7.42;58.59;102066.00;146599;650;47011;-79
2022/02/10 23:57:13;;;;;;;;;22.25;20.25;;;;;7.04;59.45;101985.34;146600;570;46008;-78
